createdAt,value
2018-11-23T00:01:29.677Z,15.23
2018-11-23T00:03:57.202Z,13.95
2018-11-23T00:06:24.651Z,14.82
2018-11-23T00:08:52.064Z,14.93
2018-11-23T00:11:19.491Z,15.73
2018-11-23T00:13:47.020Z,16.67
2018-11-23T00:16:14.439Z,17.48
2018-11-23T00:18:41.873Z,15.10
2018-11-23T00:21:09.457Z,16.70
2018-11-23T00:23:36.901Z,16.85
2018-11-23T00:26:04.312Z,16.00
2018-11-23T00:28:31.736Z,14.68
2018-11-23T00:30:59.389Z,17.40
2018-11-23T00:33:26.828Z,18.30
2018-11-23T00:35:54.244Z,16.75
2018-11-23T00:38:21.696Z,16.15
2018-11-23T00:40:49.247Z,13.43
2018-11-23T00:43:16.781Z,17.02
2018-11-23T00:45:44.197Z,15.68
2018-11-23T00:48:11.704Z,21.83
2018-11-23T00:50:39.103Z,14.02
2018-11-23T00:53:06.534Z,12.90
2018-11-23T00:55:33.950Z,15.50
2018-11-23T00:58:01.413Z,13.48
2018-11-23T01:00:28.898Z,14.00
2018-11-23T01:02:56.357Z,10.90
2018-11-23T01:05:24.296Z,13.18
2018-11-23T01:07:51.758Z,15.23
2018-11-23T01:10:19.193Z,16.77
2018-11-23T01:12:46.898Z,12.82
2018-11-23T01:15:14.290Z,14.23
2018-11-23T01:17:41.695Z,14.77
2018-11-23T01:20:09.129Z,14.30
2018-11-23T01:22:36.544Z,15.52
2018-11-23T01:25:03.953Z,16.00
2018-11-23T01:27:31.451Z,15.70
2018-11-23T01:29:58.912Z,13.05
2018-11-23T01:32:26.334Z,18.70
2018-11-23T01:34:53.770Z,14.32
2018-11-23T01:37:21.230Z,17.30
2018-11-23T01:39:48.674Z,16.77
2018-11-23T01:42:16.076Z,14.43
2018-11-23T01:44:43.483Z,15.18
2018-11-23T01:47:10.904Z,16.05
2018-11-23T01:49:38.324Z,19.70
2018-11-23T01:52:05.738Z,17.12
2018-11-23T01:54:33.211Z,14.98
2018-11-23T01:57:01.331Z,14.90
2018-11-23T01:59:28.738Z,14.82
2018-11-23T02:01:56.169Z,16.17
2018-11-23T02:04:23.580Z,17.77
2018-11-23T02:06:50.994Z,17.85
2018-11-23T02:09:18.420Z,16.58
2018-11-23T02:11:45.820Z,14.98
2018-11-23T02:14:13.237Z,15.50
2018-11-23T02:16:40.880Z,14.27
2018-11-23T02:19:08.310Z,14.65
2018-11-23T02:21:35.731Z,17.20
2018-11-23T02:24:03.150Z,15.30
2018-11-23T02:26:30.594Z,17.85
2018-11-23T02:28:58.002Z,15.55
2018-11-23T02:31:25.433Z,14.32
2018-11-23T02:33:52.895Z,15.18
2018-11-23T02:36:20.490Z,18.20
2018-11-23T02:38:47.898Z,18.12
2018-11-23T02:41:15.879Z,16.42
2018-11-23T02:43:43.276Z,19.10
2018-11-23T02:46:10.705Z,14.73
2018-11-23T02:48:38.162Z,17.17
2018-11-23T02:51:05.864Z,18.25
2018-11-23T02:53:33.291Z,13.80
2018-11-23T02:56:00.760Z,15.98
2018-11-23T02:58:28.182Z,16.92
2018-11-23T03:00:55.575Z,16.62
2018-11-23T03:03:23.140Z,17.20
2018-11-23T03:05:50.573Z,20.92
2018-11-23T03:08:18.460Z,15.98
2018-11-23T03:10:45.876Z,15.90
2018-11-23T03:13:13.286Z,16.62
2018-11-23T03:15:40.799Z,20.00
2018-11-23T03:18:08.215Z,17.58
2018-11-23T03:20:35.640Z,16.55
2018-11-23T03:23:03.607Z,14.55
2018-11-23T03:25:31.030Z,18.25
2018-11-23T03:27:58.435Z,16.75
2018-11-23T03:30:25.901Z,16.45
2018-11-23T03:32:53.309Z,19.40
2018-11-23T03:35:20.703Z,16.27
2018-11-23T03:37:48.135Z,17.92
2018-11-23T03:40:15.555Z,18.30
2018-11-23T03:42:42.967Z,18.00
2018-11-23T03:45:10.493Z,18.20
2018-11-23T03:47:37.920Z,14.15
2018-11-23T03:50:05.342Z,16.60
2018-11-23T03:52:32.761Z,13.55
2018-11-23T03:55:00.194Z,16.20
2018-11-23T03:57:27.740Z,17.85
2018-11-23T03:59:55.155Z,14.38
2018-11-23T04:02:22.568Z,15.15
2018-11-23T04:04:50.072Z,16.42
2018-11-23T04:07:17.558Z,16.37
2018-11-23T04:09:44.964Z,18.10
2018-11-23T04:12:12.360Z,15.73
2018-11-23T04:14:39.766Z,16.33
2018-11-23T04:17:07.196Z,18.02
2018-11-23T04:19:34.608Z,16.98
2018-11-23T04:22:02.021Z,19.80
2018-11-23T04:24:29.423Z,14.95
2018-11-23T04:26:56.827Z,12.27
2018-11-23T04:29:24.256Z,17.80
2018-11-23T04:31:51.635Z,15.43
2018-11-23T04:34:19.227Z,14.27
2018-11-23T04:36:46.628Z,13.20
2018-11-23T04:39:14.967Z,15.93
2018-11-23T04:41:46.424Z,13.50
2018-11-23T04:44:09.815Z,15.15
2018-11-23T04:46:37.315Z,16.15
2018-11-23T04:49:04.894Z,14.68
2018-11-23T04:51:32.927Z,11.90
2018-11-23T04:54:00.519Z,14.60
2018-11-23T04:56:27.977Z,13.80
2018-11-23T04:58:55.387Z,14.52
2018-11-23T05:01:22.805Z,14.70
2018-11-23T05:03:50.228Z,15.30
2018-11-23T05:06:17.659Z,17.23
2018-11-23T05:08:45.068Z,17.33
2018-11-23T05:11:12.473Z,13.18
2018-11-23T05:13:39.878Z,14.98
2018-11-23T05:16:07.286Z,16.80
2018-11-23T05:18:34.711Z,14.93
2018-11-23T05:21:02.111Z,13.07
2018-11-23T05:23:29.617Z,12.57
2018-11-23T05:25:57.230Z,15.43
2018-11-23T05:28:24.847Z,14.45
2018-11-23T05:30:52.320Z,14.87
2018-11-23T05:33:19.732Z,15.02
2018-11-23T05:35:48.151Z,13.00
2018-11-23T05:38:15.596Z,14.85
2018-11-23T05:40:43.022Z,13.68
2018-11-23T05:43:10.449Z,17.02
2018-11-23T05:45:37.854Z,15.20
2018-11-23T05:48:05.273Z,17.23
2018-11-23T05:50:32.733Z,14.57
2018-11-23T05:53:00.143Z,14.32
2018-11-23T05:55:27.541Z,16.83
2018-11-23T05:57:54.955Z,14.45
2018-11-23T06:00:22.374Z,14.65
2018-11-23T06:02:49.889Z,13.85
2018-11-23T06:05:17.735Z,12.68
2018-11-23T06:07:45.287Z,13.05
2018-11-23T06:10:12.713Z,11.48
2018-11-23T06:12:40.119Z,14.73
2018-11-23T06:15:07.578Z,15.23
2018-11-23T06:17:35.004Z,15.60
2018-11-23T06:20:02.424Z,12.75
2018-11-23T06:22:30.063Z,15.60
2018-11-23T06:24:57.483Z,14.40
2018-11-23T06:27:24.878Z,13.20
2018-11-23T06:29:52.900Z,15.48
2018-11-23T06:32:20.350Z,16.23
2018-11-23T06:34:47.809Z,12.37
2018-11-23T06:37:15.270Z,17.70
2018-11-23T06:39:42.685Z,19.95
2018-11-23T06:42:10.103Z,12.82
2018-11-23T06:44:37.531Z,13.82
2018-11-23T06:47:04.938Z,15.35
2018-11-23T06:49:32.372Z,12.77
2018-11-23T06:51:59.770Z,17.25
2018-11-23T06:54:27.202Z,15.77
2018-11-23T06:56:55.733Z,14.65
2018-11-23T06:59:23.200Z,15.00
2018-11-23T07:01:50.620Z,11.40
2018-11-23T07:04:18.052Z,13.13
2018-11-23T07:06:45.484Z,17.70
2018-11-23T07:09:13.763Z,17.98
2018-11-23T07:11:41.221Z,14.82
2018-11-23T07:14:08.670Z,13.38
2018-11-23T07:16:36.164Z,14.60
2018-11-23T07:19:03.587Z,16.73
2018-11-23T07:21:31.039Z,16.75
2018-11-23T07:23:58.472Z,14.13
2018-11-23T07:26:26.480Z,16.75
2018-11-23T07:28:53.922Z,14.40
2018-11-23T07:31:21.402Z,12.82
2018-11-23T07:33:48.818Z,13.07
2018-11-23T07:36:16.270Z,12.15
2018-11-23T07:38:43.785Z,12.65
2018-11-23T07:41:22.976Z,14.15
2018-11-23T07:43:50.535Z,14.35
2018-11-23T07:46:18.084Z,17.60
2018-11-23T07:48:45.548Z,15.95
2018-11-23T07:51:13.019Z,16.08
2018-11-23T07:53:40.436Z,19.15
2018-11-23T07:56:07.822Z,14.85
2018-11-23T07:58:35.580Z,15.55
2018-11-23T08:01:04.584Z,17.80
2018-11-23T08:03:32.731Z,13.98
2018-11-23T08:06:01.089Z,15.88
2018-11-23T08:08:28.486Z,19.08
2018-11-23T08:10:55.346Z,14.10
2018-11-23T08:13:23.612Z,17.48
2018-11-23T08:15:51.023Z,16.92
2018-11-23T08:18:18.468Z,13.95
2018-11-23T08:20:45.858Z,15.98
2018-11-23T08:23:13.246Z,20.55
2018-11-23T08:25:40.670Z,14.43
2018-11-23T08:28:08.098Z,14.82
2018-11-23T08:30:35.527Z,13.07
2018-11-23T08:33:02.936Z,13.23
2018-11-23T08:35:30.400Z,15.07
2018-11-23T08:37:57.927Z,18.87
2018-11-23T08:40:25.463Z,12.63
2018-11-23T08:42:52.849Z,15.35
2018-11-23T08:45:20.271Z,14.32
2018-11-23T08:47:47.755Z,12.73
2018-11-23T08:50:15.207Z,12.15
2018-11-23T08:52:42.626Z,16.55
2018-11-23T08:55:10.110Z,16.08
2018-11-23T08:57:37.550Z,13.15
2018-11-23T09:00:04.963Z,14.68
2018-11-23T09:02:32.390Z,16.80
2018-11-23T09:04:59.774Z,18.50
2018-11-23T09:07:27.199Z,15.43
2018-11-23T09:09:54.622Z,14.35
2018-11-23T09:12:22.165Z,14.50
2018-11-23T09:14:49.776Z,13.68
2018-11-23T09:17:17.262Z,14.55
2018-11-23T09:19:44.701Z,12.98
2018-11-23T09:22:12.121Z,14.05
2018-11-23T09:24:39.525Z,14.45
2018-11-23T09:27:07.063Z,14.85
2018-11-23T09:29:35.153Z,16.83
2018-11-23T09:32:02.549Z,14.55
2018-11-23T09:34:29.966Z,17.87
2018-11-23T09:36:57.386Z,13.80
2018-11-23T09:39:24.818Z,16.23
2018-11-23T09:41:52.223Z,15.38
2018-11-23T09:44:19.634Z,18.73
2018-11-23T09:46:47.047Z,16.65
2018-11-23T09:49:14.600Z,15.95
2018-11-23T09:51:42.148Z,14.87
2018-11-23T09:54:09.542Z,15.20
2018-11-23T09:56:37.170Z,12.50
2018-11-23T09:59:04.689Z,15.15
2018-11-23T10:01:32.130Z,17.25
2018-11-23T10:03:59.605Z,14.52
2018-11-23T10:06:27.145Z,17.15
2018-11-23T10:08:54.449Z,15.98
2018-11-23T10:11:21.857Z,16.60
2018-11-23T10:13:49.271Z,17.75
2018-11-23T10:16:16.735Z,16.73
2018-11-23T10:18:44.350Z,16.25
2018-11-23T10:21:11.759Z,15.95
2018-11-23T10:23:39.166Z,14.10
2018-11-23T10:26:06.799Z,13.35
2018-11-23T10:28:34.284Z,13.62
2018-11-23T10:31:01.682Z,14.38
2018-11-23T10:33:29.427Z,13.57
2018-11-23T10:35:56.857Z,13.02
2018-11-23T10:38:25.041Z,17.10
2018-11-23T10:40:52.430Z,15.05
2018-11-23T10:43:19.843Z,15.85
2018-11-23T10:45:48.146Z,14.30
2018-11-23T10:48:15.632Z,11.55
2018-11-23T10:50:43.235Z,11.63
2018-11-23T10:53:10.631Z,15.15
2018-11-23T10:55:38.229Z,13.82
2018-11-23T10:58:06.424Z,15.05
2018-11-23T11:00:33.850Z,11.82
2018-11-23T11:03:01.274Z,14.02
2018-11-23T11:05:28.829Z,13.00
2018-11-23T11:07:56.291Z,14.65
2018-11-23T11:10:23.905Z,15.38
2018-11-23T11:12:51.542Z,16.95
2018-11-23T11:15:18.986Z,11.82
2018-11-23T11:17:46.764Z,13.23
2018-11-23T11:20:14.230Z,14.55
2018-11-23T11:22:41.633Z,11.73
2018-11-23T11:25:09.190Z,11.10
2018-11-23T11:27:36.631Z,11.63
2018-11-23T11:30:04.090Z,13.82
2018-11-23T11:32:31.511Z,14.25
2018-11-23T11:34:58.919Z,12.20
2018-11-23T11:37:26.393Z,12.88
2018-11-23T11:39:53.846Z,11.93
2018-11-23T11:42:21.283Z,10.95
2018-11-23T11:44:49.303Z,12.90
2018-11-23T11:47:16.752Z,13.57
2018-11-23T11:49:44.224Z,12.93
2018-11-23T11:52:11.646Z,12.80
2018-11-23T11:54:39.070Z,14.93
2018-11-23T11:57:06.513Z,12.50
2018-11-23T11:59:33.926Z,13.60
2018-11-23T12:02:01.453Z,15.23
2018-11-23T12:04:28.855Z,12.23
2018-11-23T12:06:56.270Z,13.25
2018-11-23T12:09:23.728Z,12.98
2018-11-23T12:11:51.146Z,12.10
2018-11-23T12:14:19.030Z,11.77
2018-11-23T12:16:46.485Z,11.77
2018-11-23T12:19:14.646Z,15.55
2018-11-23T12:21:42.220Z,13.82
2018-11-23T12:24:09.738Z,14.45
2018-11-23T12:26:37.252Z,13.75
2018-11-23T12:29:04.756Z,16.23
2018-11-23T12:31:32.141Z,12.23
2018-11-23T12:33:59.623Z,13.13
2018-11-23T12:36:27.130Z,11.57
2018-11-23T12:38:54.667Z,13.18
2018-11-23T12:41:22.082Z,12.50
2018-11-23T12:43:49.533Z,12.20
2018-11-23T12:46:16.971Z,11.52
2018-11-23T12:48:44.442Z,12.55
2018-11-23T12:51:11.870Z,13.07
2018-11-23T12:53:39.348Z,13.68
2018-11-23T12:56:07.011Z,14.40
2018-11-23T12:58:36.043Z,12.75
2018-11-23T13:01:03.496Z,14.57
2018-11-23T13:03:31.056Z,12.52
2018-11-23T13:05:58.477Z,11.43
2018-11-23T13:08:25.922Z,13.90
2018-11-23T13:10:53.423Z,12.70
2018-11-23T13:13:20.881Z,11.35
2018-11-23T13:15:48.275Z,10.93
2018-11-23T13:18:15.749Z,13.27
2018-11-23T13:20:43.182Z,13.50
2018-11-23T13:23:10.860Z,13.88
2018-11-23T13:25:38.275Z,11.02
2018-11-23T13:28:06.617Z,13.95
2018-11-23T13:30:34.061Z,12.70
2018-11-23T13:33:01.498Z,14.05
2018-11-23T13:35:28.914Z,12.10
2018-11-23T13:37:56.324Z,12.57
2018-11-23T13:40:23.817Z,12.15
2018-11-23T13:42:52.148Z,11.15
2018-11-23T13:45:19.706Z,12.75
2018-11-23T13:47:47.162Z,11.32
2018-11-23T13:50:14.591Z,14.77
2018-11-23T13:52:42.003Z,13.25
2018-11-23T13:55:10.451Z,14.73
2018-11-23T13:57:37.884Z,10.65
2018-11-23T14:00:05.395Z,15.90
2018-11-23T14:02:32.918Z,14.13
2018-11-23T14:05:00.325Z,11.90
2018-11-23T14:07:27.731Z,14.20
2018-11-23T14:09:55.212Z,14.43
2018-11-23T14:12:22.638Z,14.32
2018-11-23T14:14:50.040Z,13.50
2018-11-23T14:17:17.491Z,15.30
2018-11-23T14:19:45.115Z,13.85
2018-11-23T14:22:12.506Z,12.80
2018-11-23T14:24:39.931Z,12.95
2018-11-23T14:27:07.375Z,12.13
2018-11-23T14:29:34.919Z,14.90
2018-11-23T14:32:02.348Z,13.40
2018-11-23T14:34:29.739Z,14.80
2018-11-23T14:36:58.155Z,16.75
2018-11-23T14:39:25.578Z,16.25
2018-11-23T14:41:53.693Z,19.00
2018-11-23T14:44:21.157Z,13.98
2018-11-23T14:46:48.668Z,13.25
2018-11-23T14:49:16.077Z,13.60
2018-11-23T14:51:43.480Z,13.68
2018-11-23T14:54:10.929Z,12.57
2018-11-23T14:56:38.697Z,13.88
2018-11-23T14:59:06.109Z,13.65
2018-11-23T15:01:33.566Z,15.27
2018-11-23T15:04:00.959Z,13.25
2018-11-23T15:06:28.451Z,14.82
2018-11-23T15:08:55.892Z,14.23
2018-11-23T15:11:23.301Z,14.68
2018-11-23T15:13:50.802Z,13.75
2018-11-23T15:16:18.244Z,11.80
2018-11-23T15:18:45.943Z,12.50
2018-11-23T15:21:13.330Z,16.67
2018-11-23T15:23:41.488Z,11.38
2018-11-23T15:26:08.965Z,12.90
2018-11-23T15:28:36.412Z,13.80
2018-11-23T15:31:03.821Z,13.23
2018-11-23T15:33:31.241Z,14.82
2018-11-23T15:35:58.631Z,13.57
2018-11-23T15:38:26.094Z,11.65
2018-11-23T15:40:53.530Z,12.55
2018-11-23T15:43:20.997Z,15.80
2018-11-23T15:45:48.526Z,12.23
2018-11-23T15:48:15.960Z,15.07
2018-11-23T15:50:43.386Z,14.18
2018-11-23T15:53:10.791Z,13.43
2018-11-23T15:55:38.564Z,11.38
2018-11-23T15:58:05.672Z,16.70
2018-11-23T16:00:34.591Z,10.95
2018-11-23T16:03:02.043Z,13.00
2018-11-23T16:05:29.597Z,15.90
2018-11-23T16:07:57.066Z,14.20
2018-11-23T16:10:24.488Z,13.40
2018-11-23T16:12:51.919Z,13.02
2018-11-23T16:15:20.556Z,11.43
2018-11-23T16:17:48.036Z,13.77
2018-11-23T16:20:15.562Z,12.20
2018-11-23T16:22:43.015Z,10.60
2018-11-23T16:25:10.404Z,9.57
2018-11-23T16:27:37.859Z,11.75
2018-11-23T16:30:05.281Z,12.30
2018-11-23T16:32:32.672Z,13.25
2018-11-23T16:35:00.182Z,10.23
2018-11-23T16:37:27.706Z,13.32
2018-11-23T16:39:56.058Z,10.90
2018-11-23T16:42:23.486Z,12.00
2018-11-23T16:44:50.881Z,10.38
2018-11-23T16:47:18.332Z,14.57
2018-11-23T16:49:45.763Z,11.40
2018-11-23T16:52:13.346Z,11.30
2018-11-23T16:54:40.762Z,10.20
2018-11-23T16:57:08.238Z,11.55
2018-11-23T16:59:35.715Z,13.95
2018-11-23T17:02:04.016Z,12.10
2018-11-23T17:04:31.446Z,9.77
2018-11-23T17:06:59.509Z,10.13
2018-11-23T17:09:26.918Z,9.60
2018-11-23T17:11:54.332Z,9.23
2018-11-23T17:14:21.855Z,9.98
2018-11-23T17:16:49.319Z,11.32
2018-11-23T17:19:16.758Z,10.23
2018-11-23T17:21:44.180Z,8.80
2018-11-23T17:24:12.546Z,8.80
2018-11-23T17:26:40.000Z,10.75
2018-11-23T17:29:07.538Z,10.65
2018-11-23T17:31:34.940Z,9.73
2018-11-23T17:34:02.442Z,9.90
2018-11-23T17:36:29.841Z,9.95
2018-11-23T17:38:57.328Z,10.10
2018-11-23T17:41:24.859Z,10.15
2018-11-23T17:43:52.291Z,9.52
2018-11-23T17:46:19.760Z,9.50
2018-11-23T17:48:47.171Z,8.88
2018-11-23T17:51:14.640Z,9.85
2018-11-23T17:53:42.350Z,8.27
2018-11-23T17:56:10.432Z,9.15
2018-11-23T17:58:38.461Z,10.52
2018-11-23T18:01:05.875Z,8.18
2018-11-23T18:03:33.364Z,8.70
2018-11-23T18:06:00.800Z,9.02
2018-11-23T18:08:28.212Z,14.07
2018-11-23T18:10:55.614Z,9.27
2018-11-23T18:13:23.048Z,8.38
2018-11-23T18:15:50.459Z,9.90
2018-11-23T18:18:17.902Z,9.43
2018-11-23T18:20:45.473Z,9.95
2018-11-23T18:23:12.897Z,8.50
2018-11-23T18:25:40.315Z,8.93
2018-11-23T18:28:07.733Z,7.72
2018-11-23T18:30:35.181Z,9.70
2018-11-23T18:33:03.425Z,10.90
2018-11-23T18:35:30.918Z,8.35
2018-11-23T18:37:58.533Z,8.38
2018-11-23T18:40:25.960Z,9.13
2018-11-23T18:42:53.721Z,10.82
2018-11-23T18:45:21.151Z,9.60
2018-11-23T18:47:48.662Z,9.80
2018-11-23T18:50:16.915Z,10.95
2018-11-23T18:52:44.344Z,12.10
2018-11-23T18:55:17.919Z,11.95
2018-11-23T18:57:40.263Z,10.70
2018-11-23T19:00:07.720Z,9.38
2018-11-23T19:02:35.784Z,10.05
2018-11-23T19:05:03.559Z,12.20
2018-11-23T19:07:30.976Z,9.43
2018-11-23T19:09:58.433Z,9.27
2018-11-23T19:12:25.874Z,8.75
2018-11-23T19:14:53.310Z,9.73
2018-11-23T19:17:21.005Z,10.48
2018-11-23T19:19:48.411Z,10.02
2018-11-23T19:22:15.917Z,10.93
2018-11-23T19:24:43.322Z,9.23
2018-11-23T19:27:11.323Z,10.00
2018-11-23T19:29:38.729Z,9.23
2018-11-23T19:32:06.157Z,9.73
2018-11-23T19:34:40.653Z,9.45
2018-11-23T19:37:08.050Z,9.40
2018-11-23T19:39:35.478Z,8.52
2018-11-23T19:42:02.932Z,11.00
2018-11-23T19:44:30.332Z,10.85
2018-11-23T19:46:57.774Z,10.30
2018-11-23T19:49:25.259Z,8.32
2018-11-23T19:51:52.719Z,6.90
2018-11-23T19:54:20.145Z,8.32
2018-11-23T19:56:47.610Z,7.97
2018-11-23T19:59:15.054Z,7.55
2018-11-23T20:01:42.541Z,8.38
2018-11-23T20:04:10.101Z,6.35
2018-11-23T20:06:42.734Z,7.25
2018-11-23T20:09:05.536Z,8.52
2018-11-23T20:11:32.965Z,9.77
2018-11-23T20:14:00.456Z,9.75
2018-11-23T20:16:27.870Z,8.20
2018-11-23T20:18:55.413Z,9.38
2018-11-23T20:21:23.828Z,9.95
2018-11-23T20:23:51.293Z,10.18
2018-11-23T20:26:18.898Z,8.68
2018-11-23T20:28:46.304Z,9.75
2018-11-23T20:31:13.834Z,8.25
2018-11-23T20:33:41.837Z,10.35
2018-11-23T20:36:09.298Z,9.80
2018-11-23T20:38:36.746Z,8.88
2018-11-23T20:41:05.041Z,10.38
2018-11-23T20:43:32.462Z,9.68
2018-11-23T20:46:00.786Z,11.98
2018-11-23T20:48:28.386Z,11.20
2018-11-23T20:50:55.814Z,10.35
2018-11-23T20:53:23.316Z,14.07
2018-11-23T20:55:50.746Z,11.20
2018-11-23T20:58:18.581Z,11.85
2018-11-23T21:00:45.987Z,11.32
2018-11-23T21:03:13.447Z,10.32
2018-11-23T21:05:40.876Z,11.55
2018-11-23T21:08:08.314Z,10.55
2018-11-23T21:10:35.709Z,11.65
2018-11-23T21:13:03.158Z,14.32
2018-11-23T21:15:30.562Z,14.80
2018-11-23T21:17:58.892Z,15.15
2018-11-23T21:20:28.213Z,15.68
2018-11-23T21:22:55.651Z,14.43
2018-11-23T21:25:23.134Z,12.82
2018-11-23T21:27:50.640Z,13.10
2018-11-23T21:30:18.150Z,15.40
2018-11-23T21:32:45.664Z,12.20
2018-11-23T21:35:13.119Z,13.05
2018-11-23T21:37:40.560Z,13.20
2018-11-23T21:40:07.993Z,11.57
2018-11-23T21:42:35.421Z,12.75
2018-11-23T21:45:03.045Z,14.20
2018-11-23T21:47:30.527Z,16.77
2018-11-23T21:49:58.032Z,12.32
2018-11-23T21:52:25.555Z,12.13
2018-11-23T21:54:53.064Z,12.80
2018-11-23T21:57:20.478Z,13.05
2018-11-23T21:59:47.898Z,14.65
2018-11-23T22:02:15.303Z,13.73
2018-11-23T22:04:42.718Z,13.80
2018-11-23T22:07:11.074Z,10.05
2018-11-23T22:09:38.515Z,9.95
2018-11-23T22:12:06.008Z,11.52
2018-11-23T22:14:33.416Z,7.40
2018-11-23T22:17:00.827Z,8.02
2018-11-23T22:19:28.433Z,7.85
2018-11-23T22:21:55.848Z,7.97
2018-11-23T22:24:23.285Z,6.18
2018-11-23T22:26:50.723Z,8.73
2018-11-23T22:29:18.117Z,6.55
2018-11-23T22:31:45.526Z,7.70
2018-11-23T22:34:12.998Z,8.02
2018-11-23T22:36:40.454Z,7.25
2018-11-23T22:39:08.008Z,6.85
2018-11-23T22:41:35.414Z,6.20
2018-11-23T22:44:02.841Z,5.60
2018-11-23T22:46:30.774Z,6.37
2018-11-23T22:48:58.175Z,6.57
2018-11-23T22:51:25.737Z,6.75
2018-11-23T22:53:53.337Z,6.87
2018-11-23T22:56:20.751Z,4.97
2018-11-23T22:58:51.474Z,4.70
2018-11-23T23:01:15.620Z,8.63
2018-11-23T23:03:43.078Z,6.32
2018-11-23T23:06:10.532Z,6.68
2018-11-23T23:08:38.398Z,5.90
2018-11-23T23:11:05.811Z,6.95
2018-11-23T23:13:33.246Z,6.30
2018-11-23T23:16:00.679Z,6.30
2018-11-23T23:18:28.106Z,5.50
2018-11-23T23:20:55.510Z,7.00
2018-11-23T23:23:23.267Z,5.50
2018-11-23T23:25:50.724Z,5.75
2018-11-23T23:28:19.194Z,5.05
2018-11-23T23:30:46.620Z,5.03
2018-11-23T23:33:14.036Z,6.78
2018-11-23T23:35:41.625Z,3.78
2018-11-23T23:38:09.221Z,6.20
2018-11-23T23:40:36.778Z,4.85
2018-11-23T23:43:04.262Z,5.25
2018-11-23T23:45:31.682Z,4.25
2018-11-23T23:47:59.066Z,5.32
2018-11-23T23:50:26.488Z,3.75
2018-11-23T23:52:53.878Z,3.97
2018-11-23T23:55:21.611Z,5.40
2018-11-23T23:57:49.051Z,3.70
